Historyczne dane pomiarowe

Dodano dane terminowe – wersja testowa.

Dane z okresu 1951-2019

Wersja bazy: 1.34 [2019-03-16, lista zmian], aktualizacja planowana na 2019-04-15

Dane meteo z obszaru Polski uzyskane na podstawie danych udostępnionych przez Instytut Meteorologii i Gospodarki Wodnej – Państwowy Instytut Badawczy.

 

Wybierz Datę:    

       

TemperaturaWilgotnośćWiatrCiśnienieOpadyŚniegCzas trwania zjawisk
 Stacja t tx tn tng RH VA  wxwx mslp ppp RRR   cm mm wxwxwxwxwxwxwx
1986-05-15 16.8 23.0 10.8--- 0.3 2.3---- 0.0------------
1986-05-16 14.5 16.2 12.8--- 2.0 2.7---- 0.0------------
1986-05-17 12.3 15.0 11.5--- 8.0 10.0---- 8.1------------
1986-05-18 13.0 20.0 5.9--- 2.0 4.3---- 0.0------------
1986-05-19 16.8 24.0 9.8--- 3.3 2.0---- 0.2------------
1986-05-20 14.6 21.0 9.3--- 1.7 4.0---- 0.0------------
1986-05-21 17.0 22.0 13.9--- 1.7 1.3---- 0.0------------
1986-05-22 18.5 24.4 14.9--- 1.7 1.3---- 0.0------------
1986-05-23 20.7 27.7 16.1--- 1.3 1.3---- 0.0------------
1986-05-24 23.0 30.0 17.2--- 1.0 2.0---- 3.2------------
1986-05-25 18.7 25.0 13.3--- 2.7 3.7---- 0.0------------
1986-05-26 18.6 24.2 14.4--- 0.7 2.3---- 0.0------------
1986-05-27 21.5 27.5 12.4--- 0.7 2.3---- 0.0------------
1986-05-28 22.8 29.5 18.1--- 0.7 1.0---- 0.0------------
1986-05-29 17.9 24.5 13.0--- 2.7 2.7---- 0.0------------
1986-05-30 18.2 24.0 15.6--- 2.0 3.3---- 16.7------------
1986-05-31 13.5 19.5 9.9--- 4.3 6.0---- 2.4------------
1986-06-01 13.7 17.5 10.9--- 4.0 5.0---- 8.1------------
1986-06-02 10.1 13.5 8.3--- 7.7 6.0---- 2.2------------
1986-06-03 12.5 16.8 6.4--- 2.7 0.3---- 0.0------------
1986-06-04 14.8 19.0 11.8--- 1.3 2.7---- 0.0------------
1986-06-05 11.8 15.5 8.8--- 5.7 6.0---- 3.8------------
1986-06-06 10.6 16.5 5.9--- 6.7 5.0---- 4.8------------
1986-06-07 13.1 18.0 5.4--- 3.7 5.0---- 0.0------------
1986-06-08 15.5 19.5 11.3--- 2.3 3.3---- 0.0------------
1986-06-09 15.7 20.2 12.1--- 3.0 5.0---- 0.0------------
1986-06-10 18.3 23.0 11.4--- 2.7 4.3---- 0.0------------
1986-06-11 20.6 22.3 17.0--- 4.7 5.0---- 1.5------------
1986-06-12 21.5 25.5 16.8--- 2.7 2.7---- 0.0------------
1986-06-13 21.0 25.0 19.9--- 3.7 1.3---- 1.0------------
259.9 ms

 

Źródłem pochodzenia danych jest Instytut Meteorologii i Gospodarki Wodnej – Państwowy Instytut Badawczy. Dane Instytutu Meteorologii i Gospodarki Wodnej – Państwowego Instytutu Badawczego zostały przetworzone.

Dane źródłowe można odnaleźć na stronie https://dane.imgw.pl